createdAt,value
2022-09-13T00:02:14.189Z,100262.88
2022-09-13T00:04:41.111Z,100263.19
2022-09-13T00:07:07.633Z,100258.34
2022-09-13T00:09:34.205Z,100254.66
2022-09-13T00:12:00.810Z,100248.25
2022-09-13T00:14:27.432Z,100240.06
2022-09-13T00:16:53.967Z,100235.56
2022-09-13T00:19:20.623Z,100235.00
2022-09-13T00:21:47.282Z,100235.97
2022-09-13T00:24:13.908Z,100227.22
2022-09-13T00:26:40.521Z,100220.53
2022-09-13T00:29:07.099Z,100213.41
2022-09-13T00:31:33.660Z,100201.88
2022-09-13T00:34:00.649Z,100195.28
2022-09-13T00:36:27.353Z,100189.78
2022-09-13T00:38:53.934Z,100192.97
2022-09-13T00:41:21.112Z,100192.88
2022-09-13T00:43:57.166Z,100184.31
2022-09-13T00:46:35.590Z,100175.56
2022-09-13T00:49:11.822Z,100181.03
2022-09-13T00:51:39.973Z,100173.16
2022-09-13T00:54:06.542Z,100163.03
2022-09-13T00:56:47.857Z,100153.78
2022-09-13T00:59:22.989Z,100151.19
2022-09-13T01:01:53.457Z,100147.34
2022-09-13T01:04:22.792Z,100143.59
2022-09-13T01:06:53.027Z,100137.38
2022-09-13T01:09:19.845Z,100136.28
2022-09-13T01:11:50.330Z,100116.03
2022-09-13T01:14:19.573Z,100117.00
2022-09-13T01:16:47.971Z,100116.13
2022-09-13T01:19:15.023Z,100109.03
2022-09-13T01:22:02.851Z,100101.22
2022-09-13T01:24:47.794Z,100101.81
2022-09-13T01:27:49.841Z,100101.69
2022-09-13T01:30:19.415Z,100089.44
2022-09-13T01:33:30.918Z,100098.59
2022-09-13T01:36:16.088Z,100091.41
2022-09-13T01:38:50.983Z,100085.97
2022-09-13T01:41:32.801Z,100081.09
2022-09-13T01:44:18.378Z,100082.16
2022-09-13T01:47:06.436Z,100068.84
2022-09-13T01:49:42.324Z,100062.97
2022-09-13T01:52:15.132Z,100058.22
2022-09-13T01:55:06.585Z,100047.09
2022-09-13T01:57:35.634Z,100023.13
2022-09-13T02:00:10.473Z,99957.91
2022-09-13T02:02:46.074Z,99964.31
2022-09-13T02:05:36.770Z,99995.00
2022-09-13T02:08:29.322Z,99997.19
2022-09-13T02:11:08.298Z,100008.75
2022-09-13T02:13:48.184Z,100010.69
2022-09-13T02:16:53.334Z,100010.00
2022-09-13T02:19:26.838Z,100008.91
2022-09-13T02:21:58.775Z,100012.63
2022-09-13T02:24:37.022Z,100008.69
2022-09-13T02:27:08.914Z,100008.53
2022-09-13T02:29:40.039Z,99999.09
2022-09-13T02:32:12.141Z,99999.38
2022-09-13T02:34:44.002Z,99997.28
2022-09-13T02:37:12.974Z,99992.97
2022-09-13T02:39:47.324Z,99997.38
2022-09-13T02:42:29.802Z,99984.22
2022-09-13T02:45:01.270Z,99994.13
2022-09-13T02:47:38.681Z,99979.97
2022-09-13T02:50:17.677Z,99990.22
2022-09-13T02:53:16.789Z,99979.00
2022-09-13T02:55:53.773Z,99974.94
2022-09-13T02:58:32.096Z,99958.19
2022-09-13T03:00:58.818Z,99948.09
2022-09-13T03:03:25.405Z,99948.66
2022-09-13T03:05:53.782Z,99931.88
2022-09-13T03:08:22.168Z,99935.81
2022-09-13T03:10:58.780Z,99930.13
2022-09-13T03:13:28.097Z,99925.28
2022-09-13T03:16:16.720Z,99917.63
2022-09-13T03:19:02.108Z,99916.81
2022-09-13T03:22:01.922Z,99908.22
2022-09-13T03:24:50.164Z,99897.50
2022-09-13T03:27:25.998Z,99885.41
2022-09-13T03:30:02.201Z,99895.34
2022-09-13T03:32:50.167Z,99902.75
2022-09-13T03:35:44.772Z,99896.03
2022-09-13T03:38:55.529Z,99901.22
2022-09-13T03:41:36.961Z,99897.22
2022-09-13T03:44:08.862Z,99893.56
2022-09-13T03:46:40.657Z,99893.09
2022-09-13T03:49:14.239Z,99881.16
2022-09-13T03:51:43.006Z,99883.47
2022-09-13T03:54:25.766Z,99887.63
2022-09-13T03:57:13.420Z,99880.16
2022-09-13T03:59:47.192Z,99872.34
2022-09-13T04:02:14.805Z,99871.63
2022-09-13T04:04:43.057Z,99860.97
2022-09-13T04:07:12.219Z,99852.41
2022-09-13T04:09:39.714Z,99854.91
2022-09-13T04:12:06.843Z,99853.50
2022-09-13T04:14:33.499Z,99850.75
2022-09-13T04:17:00.355Z,99845.88
2022-09-13T04:19:27.055Z,99845.25
2022-09-13T04:21:55.850Z,99831.25
2022-09-13T04:24:25.701Z,99842.19
2022-09-13T04:26:53.606Z,99841.28
2022-09-13T04:29:21.319Z,99822.97
2022-09-13T04:31:49.238Z,99817.56
2022-09-13T04:34:17.357Z,99816.97
2022-09-13T04:36:44.517Z,99812.50
2022-09-13T04:39:11.613Z,99806.94
2022-09-13T04:41:38.609Z,99805.81
2022-09-13T04:44:05.195Z,99795.75
2022-09-13T04:46:33.881Z,99793.13
2022-09-13T04:49:00.882Z,99792.34
2022-09-13T04:51:27.594Z,99780.28
2022-09-13T04:53:55.294Z,99776.69
2022-09-13T04:56:23.492Z,99773.94
2022-09-13T04:58:56.753Z,99776.91
2022-09-13T05:01:27.882Z,99769.31
2022-09-13T05:03:55.436Z,99767.78
2022-09-13T05:06:23.000Z,99755.88
2022-09-13T05:08:55.355Z,99753.56
2022-09-13T05:11:24.387Z,99755.66
2022-09-13T05:13:53.111Z,99740.34
2022-09-13T05:16:20.214Z,99746.00
2022-09-13T05:18:47.230Z,99750.25
2022-09-13T05:21:14.346Z,99763.00
2022-09-13T05:23:41.137Z,99737.34
2022-09-13T05:26:15.791Z,99734.34
2022-09-13T05:28:42.509Z,99738.88
2022-09-13T05:31:20.529Z,99747.66
2022-09-13T05:33:52.296Z,99744.81
2022-09-13T05:36:19.670Z,99737.16
2022-09-13T05:38:46.405Z,99731.16
2022-09-13T05:41:13.051Z,99736.78
2022-09-13T05:43:39.762Z,99737.31
2022-09-13T05:46:10.434Z,99729.16
2022-09-13T05:48:37.683Z,99724.03
2022-09-13T05:51:08.590Z,99726.66
2022-09-13T05:53:43.287Z,99727.50
2022-09-13T05:56:16.786Z,99726.16
2022-09-13T05:58:46.276Z,99724.34
2022-09-13T06:01:13.570Z,99719.44
2022-09-13T06:03:40.756Z,99707.13
2022-09-13T06:06:10.579Z,99697.91
2022-09-13T06:08:40.139Z,99713.94
2022-09-13T06:11:09.216Z,99710.03
2022-09-13T06:13:36.939Z,99710.19
2022-09-13T06:16:09.638Z,99716.81
2022-09-13T06:18:37.005Z,99714.69
2022-09-13T06:21:06.754Z,99721.88
2022-09-13T06:23:33.760Z,99714.91
2022-09-13T06:26:12.357Z,99708.97
2022-09-13T06:28:39.185Z,99718.44
2022-09-13T06:31:11.441Z,99724.13
2022-09-13T06:33:40.937Z,99725.84
2022-09-13T06:36:16.012Z,99722.69
2022-09-13T06:38:42.894Z,99721.22
2022-09-13T06:41:14.251Z,99728.31
2022-09-13T06:43:41.848Z,99722.88
2022-09-13T06:46:12.023Z,99718.41
2022-09-13T06:48:40.840Z,99717.25
2022-09-13T06:51:15.959Z,99699.63
2022-09-13T06:53:44.220Z,99696.84
2022-09-13T06:56:29.387Z,99710.13
2022-09-13T06:58:58.445Z,99703.59
2022-09-13T07:01:28.440Z,99712.59
2022-09-13T07:03:59.466Z,99714.22
2022-09-13T07:06:29.086Z,99698.34
2022-09-13T07:08:57.494Z,99698.38
2022-09-13T07:11:26.782Z,99710.22
2022-09-13T07:13:56.491Z,99710.94
2022-09-13T07:16:26.021Z,99704.09
2022-09-13T07:18:55.167Z,99703.22
2022-09-13T07:21:23.041Z,99711.78
2022-09-13T07:23:51.117Z,99699.03
2022-09-13T07:26:17.930Z,99706.59
2022-09-13T07:28:48.041Z,99717.09
2022-09-13T07:31:26.851Z,99722.53
2022-09-13T07:33:57.946Z,99714.19
2022-09-13T07:36:25.525Z,99713.72
2022-09-13T07:38:52.751Z,99712.03
2022-09-13T07:41:22.057Z,99709.41
2022-09-13T07:43:49.375Z,99722.66
2022-09-13T07:46:18.726Z,99729.84
2022-09-13T07:48:47.184Z,99717.63
2022-09-13T07:51:18.055Z,99712.50
2022-09-13T07:53:46.249Z,99700.31
2022-09-13T07:56:16.449Z,99709.44
2022-09-13T07:58:48.481Z,99713.38
2022-09-13T08:01:26.693Z,99704.00
2022-09-13T08:03:54.637Z,99703.66
2022-09-13T08:06:22.777Z,99702.84
2022-09-13T08:11:32.493Z,99701.47
2022-09-13T08:14:00.383Z,99699.72
2022-09-13T08:16:28.770Z,99694.13
2022-09-13T08:18:57.381Z,99702.78
2022-09-13T08:21:25.723Z,99700.63
2022-09-13T08:23:56.844Z,99706.28
2022-09-13T08:26:23.846Z,99708.31
2022-09-13T08:28:55.291Z,99695.13
2022-09-13T08:31:23.242Z,99704.50
2022-09-13T08:33:50.201Z,99707.66
2022-09-13T08:36:18.611Z,99708.31
2022-09-13T08:38:48.292Z,99691.97
2022-09-13T08:41:42.393Z,99693.84
2022-09-13T08:44:36.097Z,99716.63
2022-09-13T08:47:24.646Z,99705.47
2022-09-13T08:50:06.256Z,99703.69
2022-09-13T08:52:40.560Z,99708.41
2022-09-13T08:55:28.466Z,99707.88
2022-09-13T08:58:12.559Z,99703.97
2022-09-13T09:00:44.100Z,99706.69
2022-09-13T09:03:44.198Z,99711.63
2022-09-13T09:06:18.530Z,99709.66
2022-09-13T09:08:54.437Z,99708.00
2022-09-13T09:12:02.120Z,99700.78
2022-09-13T09:15:01.073Z,99705.91
2022-09-13T09:17:44.758Z,99691.31
2022-09-13T09:20:39.611Z,99688.69
2022-09-13T09:23:20.474Z,99694.38
2022-09-13T09:25:51.153Z,99694.06
2022-09-13T09:28:22.480Z,99694.69
2022-09-13T09:31:00.879Z,99703.25
2022-09-13T09:34:12.370Z,99689.56
2022-09-13T09:36:44.389Z,99699.41
2022-09-13T09:39:14.465Z,99694.63
2022-09-13T09:41:41.543Z,99689.91
2022-09-13T09:44:19.167Z,99698.34
2022-09-13T09:47:04.462Z,99698.56
2022-09-13T09:49:58.374Z,99705.91
2022-09-13T09:52:53.585Z,99695.00
2022-09-13T09:55:23.332Z,99684.47
2022-09-13T09:57:51.336Z,99713.13
2022-09-13T10:00:18.800Z,99706.66
2022-09-13T10:02:47.388Z,99700.25
2022-09-13T10:05:19.769Z,99708.97
2022-09-13T10:08:00.933Z,99706.16
2022-09-13T10:10:54.822Z,99716.78
2022-09-13T10:13:26.461Z,99707.19
2022-09-13T10:15:58.453Z,99728.94
2022-09-13T10:18:44.917Z,99719.38
2022-09-13T10:21:19.026Z,99737.69
2022-09-13T10:23:53.355Z,99732.66
2022-09-13T10:26:25.900Z,99716.97
2022-09-13T10:29:15.365Z,99722.44
2022-09-13T10:31:54.670Z,99712.06
2022-09-13T10:34:26.417Z,99709.03
2022-09-13T10:37:05.826Z,99726.19
2022-09-13T10:42:27.180Z,99712.78
2022-09-13T10:50:36.362Z,99704.56
2022-09-13T10:53:05.317Z,99685.97
2022-09-13T10:55:52.816Z,99688.16
2022-09-13T10:58:22.455Z,99694.50
2022-09-13T11:01:17.227Z,99688.22
2022-09-13T11:04:02.558Z,99692.53
2022-09-13T11:06:48.384Z,99694.03
2022-09-13T11:09:21.065Z,99706.94
2022-09-13T11:12:14.976Z,99681.44
2022-09-13T11:15:15.068Z,99707.72
2022-09-13T11:18:26.173Z,99705.09
2022-09-13T11:24:37.377Z,99698.28
2022-09-13T11:27:22.914Z,99678.59
2022-09-13T11:30:18.414Z,99681.59
2022-09-13T11:41:54.061Z,99725.56
2022-09-13T11:44:42.448Z,99690.09
2022-09-13T11:47:21.198Z,99722.66
2022-09-13T11:50:00.051Z,99707.84
2022-09-13T11:52:50.264Z,99701.06
2022-09-13T11:55:38.120Z,99685.66
2022-09-13T11:58:11.932Z,99685.94
2022-09-13T12:00:44.385Z,99685.31
2022-09-13T12:03:11.253Z,99669.38
2022-09-13T12:05:53.036Z,99678.69
2022-09-13T12:08:26.906Z,99676.09
2022-09-13T12:11:11.815Z,99682.84
2022-09-13T12:14:05.732Z,99696.34
2022-09-13T12:16:38.507Z,99676.28
2022-09-13T12:19:22.721Z,99668.03
2022-09-13T12:21:53.699Z,99690.69
2022-09-13T12:24:45.423Z,99671.31
2022-09-13T12:27:40.158Z,99673.13
2022-09-13T12:30:19.732Z,99665.72
2022-09-13T12:32:48.291Z,99665.38
2022-09-13T12:35:37.773Z,99666.47
2022-09-13T12:38:43.274Z,99678.19
2022-09-13T12:41:30.454Z,99678.06
2022-09-13T12:44:15.162Z,99660.31
2022-09-13T12:47:16.057Z,99681.34
2022-09-13T12:50:22.625Z,99670.47
2022-09-13T12:53:50.414Z,99670.16
2022-09-13T12:56:34.903Z,99662.72
2022-09-13T12:59:30.361Z,99661.06
2022-09-13T13:02:00.335Z,99651.50
2022-09-13T13:04:37.010Z,99662.56
2022-09-13T13:07:07.115Z,99661.38
2022-09-13T13:09:47.949Z,99674.19
2022-09-13T13:12:36.953Z,99656.22
2022-09-13T13:15:07.883Z,99649.41
2022-09-13T13:17:52.144Z,99658.75
2022-09-13T13:20:57.778Z,99648.09
2022-09-13T13:23:28.561Z,99660.91
2022-09-13T13:25:57.922Z,99654.38
2022-09-13T13:28:43.077Z,99647.91
2022-09-13T13:31:33.115Z,99646.41
2022-09-13T13:34:02.626Z,99645.47
2022-09-13T13:36:44.856Z,99638.66
2022-09-13T13:39:23.271Z,99638.31
2022-09-13T13:41:55.530Z,99644.34
2022-09-13T13:44:22.159Z,99646.31
2022-09-13T13:46:54.418Z,99626.00
2022-09-13T13:49:30.098Z,99621.63
2022-09-13T13:52:08.921Z,99624.38
2022-09-13T13:54:44.630Z,99619.69
2022-09-13T13:57:33.077Z,99622.63
2022-09-13T14:00:16.346Z,99619.34
2022-09-13T14:02:42.850Z,99624.41
2022-09-13T14:05:46.179Z,99607.03
2022-09-13T14:11:55.702Z,99593.22
2022-09-13T14:14:31.026Z,99600.91
2022-09-13T14:17:31.804Z,99594.66
2022-09-13T14:20:08.718Z,99598.75
2022-09-13T14:22:35.453Z,99612.06
2022-09-13T14:25:23.867Z,99610.25
2022-09-13T14:27:56.104Z,99595.00
2022-09-13T14:30:27.019Z,99589.41
2022-09-13T14:32:56.140Z,99587.31
2022-09-13T14:35:30.723Z,99584.50
2022-09-13T14:38:19.008Z,99582.00
2022-09-13T14:40:54.199Z,99584.16
2022-09-13T14:43:24.178Z,99574.38
2022-09-13T14:46:13.616Z,99576.66
2022-09-13T14:49:03.062Z,99559.53
2022-09-13T14:52:04.921Z,99574.09
2022-09-13T14:54:40.715Z,99567.84
2022-09-13T14:57:18.340Z,99566.06
2022-09-13T14:59:48.727Z,99563.44
2022-09-13T15:02:22.472Z,99565.22
2022-09-13T15:04:56.462Z,99583.50
2022-09-13T15:07:37.835Z,99583.69
2022-09-13T15:10:07.184Z,99570.47
2022-09-13T15:12:35.247Z,99581.00
2022-09-13T15:15:36.881Z,99574.09
2022-09-13T15:18:24.957Z,99580.00
2022-09-13T15:21:04.054Z,99584.31
2022-09-13T15:23:38.949Z,99580.22
2022-09-13T15:26:26.906Z,99579.88
2022-09-13T15:28:57.837Z,99582.84
2022-09-13T15:31:29.368Z,99573.63
2022-09-13T15:34:18.793Z,99570.66
2022-09-13T15:36:47.106Z,99556.81
2022-09-13T15:39:20.120Z,99568.31
2022-09-13T15:41:57.997Z,99569.41
2022-09-13T15:44:30.158Z,99563.38
2022-09-13T15:47:24.320Z,99567.88
2022-09-13T15:49:52.217Z,99568.66
2022-09-13T15:52:31.348Z,99572.72
2022-09-13T15:55:11.850Z,99569.50
2022-09-13T15:57:43.457Z,99564.06
2022-09-13T16:00:16.184Z,99563.75
2022-09-13T16:02:42.927Z,99566.69
2022-09-13T16:05:20.712Z,99561.91
2022-09-13T16:07:47.280Z,99562.63
2022-09-13T16:10:19.342Z,99556.53
2022-09-13T16:12:48.630Z,99556.66
2022-09-13T16:15:18.871Z,99557.72
2022-09-13T16:17:46.170Z,99575.50
2022-09-13T16:20:17.702Z,99547.97
2022-09-13T16:22:44.391Z,99547.09
2022-09-13T16:25:15.379Z,99550.06
2022-09-13T16:27:48.643Z,99549.66
2022-09-13T16:30:25.276Z,99556.00
2022-09-13T16:32:51.829Z,99544.00
2022-09-13T16:35:21.343Z,99544.28
2022-09-13T16:37:53.488Z,99550.88
2022-09-13T16:40:23.608Z,99543.28
2022-09-13T16:42:50.775Z,99546.19
2022-09-13T16:45:17.536Z,99545.19
2022-09-13T16:47:44.162Z,99542.03
2022-09-13T16:50:10.921Z,99537.84
2022-09-13T16:52:37.726Z,99538.31
2022-09-13T16:55:06.257Z,99568.03
2022-09-13T16:57:33.525Z,99566.75
2022-09-13T17:00:00.408Z,99565.56
2022-09-13T17:02:27.420Z,99548.81
2022-09-13T17:04:59.996Z,99552.34
2022-09-13T17:07:26.646Z,99542.69
2022-09-13T17:09:54.781Z,99551.69
2022-09-13T17:12:21.382Z,99557.03
2022-09-13T17:14:50.302Z,99564.78
2022-09-13T17:17:17.605Z,99547.41
2022-09-13T17:19:44.984Z,99544.56
2022-09-13T17:22:20.602Z,99548.97
2022-09-13T17:24:52.449Z,99541.22
2022-09-13T17:27:19.194Z,99546.13
2022-09-13T17:29:45.806Z,99543.63
2022-09-13T17:32:12.556Z,99535.28
2022-09-13T17:34:54.744Z,99520.50
2022-09-13T17:37:21.492Z,99530.78
2022-09-13T17:39:51.219Z,99530.53
2022-09-13T17:42:22.500Z,99549.69
2022-09-13T17:44:50.074Z,99555.94
2022-09-13T17:47:16.934Z,99525.88
2022-09-13T17:49:45.510Z,99529.81
2022-09-13T17:52:13.896Z,99533.28
2022-09-13T17:54:40.564Z,99539.88
2022-09-13T17:57:08.246Z,99543.84
2022-09-13T17:59:35.037Z,99533.81
2022-09-13T18:02:01.763Z,99541.97
2022-09-13T18:04:29.004Z,99539.22
2022-09-13T18:06:56.088Z,99536.03
2022-09-13T18:09:26.358Z,99536.66
2022-09-13T18:12:01.805Z,99529.47
2022-09-13T18:14:37.427Z,99526.75
2022-09-13T18:17:12.869Z,99527.50
2022-09-13T18:19:47.426Z,99533.03
2022-09-13T18:22:17.018Z,99521.84
2022-09-13T18:24:43.950Z,99525.94
2022-09-13T18:27:12.046Z,99520.66
2022-09-13T18:29:38.756Z,99521.78
2022-09-13T18:32:08.319Z,99530.81
2022-09-13T18:34:55.243Z,99528.19
2022-09-13T18:37:22.148Z,99524.06
2022-09-13T18:39:48.862Z,99522.84
2022-09-13T18:42:18.432Z,99520.66
2022-09-13T18:59:17.631Z,99530.16
2022-09-13T19:01:45.543Z,99538.69
2022-09-13T19:04:20.562Z,99536.56
2022-09-13T19:06:53.319Z,99520.34
2022-09-13T19:12:24.260Z,99525.28
2022-09-13T19:14:58.819Z,99516.28
2022-09-13T19:17:28.091Z,99512.78
2022-09-13T19:19:58.409Z,99532.56
2022-09-13T19:22:31.344Z,99515.53
2022-09-13T19:24:57.936Z,99517.81
2022-09-13T19:27:24.555Z,99512.56
2022-09-13T19:29:53.662Z,99516.66
2022-09-13T19:32:28.707Z,99507.25
2022-09-13T19:34:58.262Z,99521.03
2022-09-13T19:37:24.936Z,99517.13
2022-09-13T19:39:51.674Z,99505.28
2022-09-13T19:42:18.474Z,99515.78
2022-09-13T19:44:45.104Z,99506.19
2022-09-13T19:49:59.031Z,99494.81
2022-09-13T19:52:26.022Z,99499.50
2022-09-13T19:55:03.607Z,99498.94
2022-09-13T19:57:30.813Z,99495.50
2022-09-13T20:00:04.098Z,99495.59
2022-09-13T20:02:34.483Z,99517.25
2022-09-13T20:05:09.974Z,99503.06
2022-09-13T20:07:36.677Z,99505.28
2022-09-13T20:10:03.538Z,99498.50
2022-09-13T20:12:30.219Z,99507.66
2022-09-13T20:14:56.855Z,99502.72
2022-09-13T20:17:26.063Z,99490.63
2022-09-13T20:20:01.624Z,99494.88
2022-09-13T20:22:28.241Z,99501.84
2022-09-13T20:24:54.855Z,99504.09
2022-09-13T20:27:21.606Z,99502.72
2022-09-13T20:29:48.638Z,99506.78
2022-09-13T20:32:16.888Z,99495.72
2022-09-13T20:34:45.701Z,99477.66
2022-09-13T20:37:12.719Z,99506.34
2022-09-13T20:39:40.436Z,99488.13
2022-09-13T20:42:07.140Z,99480.38
2022-09-13T20:44:33.861Z,99481.56
2022-09-13T20:47:00.556Z,99499.50
2022-09-13T20:49:30.399Z,99488.22
2022-09-13T20:51:56.994Z,99476.09
2022-09-13T20:54:23.683Z,99481.94
2022-09-13T20:56:57.191Z,99482.16
2022-09-13T20:59:23.868Z,99484.09
2022-09-13T21:01:50.807Z,99475.78
2022-09-13T21:04:17.570Z,99481.06
2022-09-13T21:07:09.882Z,99478.34
2022-09-13T21:09:38.996Z,99475.44
2022-09-13T21:12:15.246Z,99469.81
2022-09-13T21:14:42.073Z,99478.50
2022-09-13T21:17:12.087Z,99463.81
2022-09-13T21:19:38.732Z,99490.38
2022-09-13T21:22:08.915Z,99477.16
2022-09-13T21:24:38.192Z,99465.03
2022-09-13T21:27:06.171Z,99472.28
2022-09-13T21:29:34.238Z,99466.28
2022-09-13T21:32:03.634Z,99482.81
2022-09-13T21:34:30.348Z,99469.88
2022-09-13T21:36:57.285Z,99473.28
2022-09-13T21:39:26.776Z,99478.56
2022-09-13T21:41:53.663Z,99465.38
2022-09-13T21:44:20.382Z,99474.75
2022-09-13T21:46:51.589Z,99496.22
2022-09-13T21:49:21.980Z,99470.03
2022-09-13T21:51:49.847Z,99481.44
2022-09-13T21:54:21.191Z,99469.50
2022-09-13T21:56:55.647Z,99494.34
2022-09-13T21:59:23.542Z,99490.00
2022-09-13T22:01:55.028Z,99513.66
2022-09-13T22:04:24.599Z,99490.56
2022-09-13T22:06:53.477Z,99490.34
2022-09-13T22:09:26.721Z,99484.28
2022-09-13T22:11:54.993Z,99478.53
2022-09-13T22:14:22.431Z,99468.97
2022-09-13T22:16:50.338Z,99468.75
2022-09-13T22:19:23.475Z,99478.56
2022-09-13T22:21:54.643Z,99479.41
2022-09-13T22:24:23.810Z,99476.88
2022-09-13T22:26:52.934Z,99487.38
2022-09-13T22:29:20.411Z,99467.97
2022-09-13T22:31:49.880Z,99465.38
2022-09-13T22:34:20.437Z,99464.97
2022-09-13T22:36:47.104Z,99472.78
2022-09-13T22:39:16.125Z,99467.28
2022-09-13T22:41:43.364Z,99475.66
2022-09-13T22:44:10.421Z,99474.81
2022-09-13T22:46:40.555Z,99484.81
2022-09-13T22:49:11.249Z,99466.72
2022-09-13T22:51:37.948Z,99466.28
2022-09-13T22:54:07.161Z,99457.22
2022-09-13T22:56:36.427Z,99455.28
2022-09-13T22:59:08.865Z,99448.91
2022-09-13T23:01:36.128Z,99456.63
2022-09-13T23:04:03.652Z,99470.97
2022-09-13T23:06:31.579Z,99479.91
2022-09-13T23:09:00.781Z,99458.72
2022-09-13T23:11:29.060Z,99459.13
2022-09-13T23:13:58.761Z,99460.66
2022-09-13T23:16:33.335Z,99456.41
2022-09-13T23:19:00.349Z,99474.31
2022-09-13T23:21:34.446Z,99458.38
2022-09-13T23:24:02.817Z,99453.59
2022-09-13T23:26:29.958Z,99467.84
2022-09-13T23:28:59.760Z,99478.34
2022-09-13T23:31:31.431Z,99457.59
2022-09-13T23:34:03.414Z,99459.88
2022-09-13T23:36:34.589Z,99458.91
2022-09-13T23:39:04.581Z,99467.13
2022-09-13T23:41:33.091Z,99455.63
2022-09-13T23:44:01.007Z,99445.56
2022-09-13T23:46:27.921Z,99437.78
2022-09-13T23:48:54.480Z,99457.75
2022-09-13T23:51:23.787Z,99451.53
2022-09-13T23:53:52.439Z,99445.44
2022-09-13T23:56:20.073Z,99449.78
2022-09-13T23:58:46.740Z,99450.06
